createdAt,value
2018-09-14T10:44:09.354Z,44.80
2018-09-14T10:46:48.739Z,45.70
2018-09-14T10:49:16.910Z,44.30
2018-09-14T10:51:44.927Z,44.80
2018-09-14T10:54:13.029Z,45.60
2018-09-14T10:56:41.150Z,46.20
2018-09-14T10:59:09.355Z,47.70
2018-09-14T11:01:37.355Z,48.90
2018-09-14T11:04:05.418Z,49.30
2018-09-14T11:06:33.549Z,49.90
2018-09-14T11:09:01.527Z,49.50
2018-09-14T11:11:29.595Z,50.40
2018-09-14T11:13:58.026Z,51.00
2018-09-14T11:16:26.044Z,49.90
2018-09-14T11:18:54.397Z,48.60
2018-09-14T11:21:22.385Z,47.60
2018-09-14T11:23:50.442Z,49.00
2018-09-14T11:26:18.659Z,48.10
2018-09-14T11:28:47.003Z,48.90
2018-09-14T11:31:15.059Z,48.20
2018-09-14T11:33:43.482Z,47.80
2018-09-14T11:36:11.530Z,48.10
2018-09-14T11:38:39.587Z,48.20
2018-09-14T11:41:07.718Z,48.40
2018-09-14T11:43:35.973Z,48.50
2018-09-14T11:46:04.156Z,48.30
2018-09-14T11:48:32.381Z,48.10
2018-09-14T11:51:00.393Z,48.20
2018-09-14T11:53:28.454Z,47.60
2018-09-14T11:55:56.511Z,47.20
2018-09-14T11:58:24.705Z,47.00
2018-09-14T12:00:53.178Z,46.00
2018-09-14T12:03:21.683Z,45.60
2018-09-14T12:05:49.711Z,45.60
2018-09-14T12:08:17.728Z,45.30
2018-09-14T12:10:45.820Z,45.00
2018-09-14T12:13:13.966Z,44.50
2018-09-14T12:15:42.018Z,44.30
2018-09-14T12:18:10.299Z,44.90
2018-09-14T12:20:38.618Z,43.70
2018-09-14T12:23:06.731Z,42.90
2018-09-14T12:25:37.378Z,43.40
2018-09-14T12:28:06.171Z,43.40
2018-09-14T12:30:34.464Z,42.70
2018-09-14T12:33:02.603Z,41.70
2018-09-14T12:35:30.749Z,41.00
2018-09-14T12:37:59.008Z,41.00
2018-09-14T12:40:27.218Z,41.30
2018-09-14T12:42:55.300Z,42.00
2018-09-14T12:45:23.403Z,42.40
2018-09-14T12:47:51.494Z,42.80
2018-09-14T12:50:19.613Z,41.20
2018-09-14T12:52:47.777Z,40.40
2018-09-14T12:55:16.262Z,40.70
2018-09-14T12:57:44.360Z,39.80
2018-09-14T13:00:13.436Z,39.90
2018-09-14T13:02:41.586Z,40.40
2018-09-14T13:05:09.603Z,41.30
2018-09-14T13:07:37.662Z,42.20
2018-09-14T13:10:06.767Z,41.70
2018-09-14T13:12:34.790Z,43.70
2018-09-14T13:15:02.855Z,44.30
2018-09-14T13:17:30.998Z,44.50
2018-09-14T13:19:59.275Z,44.80
2018-09-14T13:22:27.305Z,44.10
2018-09-14T13:24:55.801Z,43.30
2018-09-14T13:27:23.951Z,42.60
2018-09-14T13:29:52.019Z,42.10
2018-09-14T13:32:21.245Z,41.60
2018-09-14T13:34:49.314Z,40.90
2018-09-14T13:37:17.397Z,40.50
2018-09-14T13:39:46.478Z,40.50
2018-09-14T13:42:14.514Z,41.40
2018-09-14T13:44:42.576Z,42.10
2018-09-14T13:47:10.694Z,42.90
2018-09-14T13:49:38.767Z,41.90
2018-09-14T13:52:06.855Z,42.20
2018-09-14T13:54:35.037Z,41.80
2018-09-14T13:57:03.126Z,41.80
2018-09-14T13:59:31.163Z,41.40
2018-09-14T14:01:59.523Z,40.40
2018-09-14T14:04:27.803Z,40.10
2018-09-14T14:06:55.847Z,39.50
2018-09-14T14:09:24.159Z,40.20
2018-09-14T14:11:52.292Z,39.50
2018-09-14T14:14:20.384Z,40.20
2018-09-14T14:16:48.560Z,40.40
2018-09-14T14:19:16.528Z,40.70
2018-09-14T14:21:44.588Z,40.70
2018-09-14T14:24:12.639Z,40.70
2018-09-14T14:26:40.695Z,40.90
2018-09-14T14:29:08.799Z,40.50
2018-09-14T14:31:37.211Z,40.30
2018-09-14T15:12:18.267Z,41.80
2018-09-14T15:17:14.258Z,59.40
2018-09-14T15:19:42.366Z,42.40
2018-09-14T15:22:10.497Z,34.80
2018-09-14T15:24:38.565Z,31.20
2018-09-14T15:27:06.586Z,35.10
2018-09-14T15:29:34.795Z,40.50
2018-09-14T15:32:02.905Z,33.30
2018-09-14T15:34:30.978Z,34.60
2018-09-14T15:46:51.519Z,36.80
2018-09-14T15:49:19.675Z,39.40
2018-09-14T15:51:47.721Z,41.40
2018-09-14T15:54:15.859Z,41.40
2018-09-14T15:56:44.141Z,43.70
2018-09-14T15:59:12.350Z,46.20
2018-09-14T16:01:40.671Z,46.90
2018-09-14T16:04:09.630Z,48.50
2018-09-14T16:06:37.689Z,47.20
2018-09-14T16:09:08.574Z,49.00
2018-09-14T16:11:36.689Z,48.10
2018-09-14T16:14:04.820Z,51.10
2018-09-14T16:16:33.375Z,46.40
2018-09-14T16:19:01.623Z,49.20
2018-09-14T16:21:29.823Z,50.00
2018-09-14T16:23:57.902Z,47.80
2018-09-14T16:26:25.970Z,48.80
2018-09-14T16:28:54.184Z,52.90
2018-09-14T16:31:22.462Z,54.10
2018-09-14T16:33:50.563Z,51.50
2018-09-14T16:36:18.647Z,54.70
2018-09-14T16:38:47.119Z,52.90
2018-09-14T16:41:15.235Z,52.80
2018-09-14T16:43:43.267Z,55.40
2018-09-14T16:46:11.537Z,54.80
2018-09-14T16:48:39.953Z,56.50
2018-09-14T16:51:07.968Z,54.30
2018-09-14T16:53:36.531Z,56.50
2018-09-14T16:56:04.707Z,57.50
2018-09-14T17:40:14.231Z,43.70
2018-09-14T18:09:46.766Z,41.40
2018-09-14T18:12:14.931Z,45.20
2018-09-14T18:14:42.937Z,48.20
2018-09-14T18:17:11.299Z,50.50
2018-09-14T18:19:39.350Z,52.60
2018-09-14T18:22:07.407Z,54.90
2018-09-14T18:24:36.019Z,55.40
2018-09-14T18:27:04.095Z,56.40
2018-09-14T18:29:32.313Z,57.60
2018-09-14T18:32:00.453Z,58.00
2018-09-14T18:34:29.407Z,59.30
2018-09-14T18:36:58.298Z,60.00
2018-09-14T18:39:26.314Z,61.10
2018-09-14T18:41:55.274Z,61.70
2018-09-14T18:44:23.451Z,62.60
2018-09-14T18:46:51.650Z,64.70
2018-09-14T18:49:19.671Z,65.00
2018-09-14T18:51:47.727Z,65.90
2018-09-14T18:54:16.193Z,66.40
2018-09-14T18:56:44.626Z,68.00
2018-09-14T18:59:12.762Z,69.00
2018-09-14T19:01:40.976Z,69.60
2018-09-14T19:04:09.016Z,70.10
2018-09-14T19:06:37.731Z,71.00
2018-09-14T19:09:07.916Z,71.30
2018-09-14T19:11:37.156Z,72.30
2018-09-14T19:14:05.206Z,73.10
2018-09-14T19:16:34.115Z,73.40
2018-09-14T19:19:02.389Z,73.90
2018-09-14T19:21:30.502Z,74.20
2018-09-14T19:23:58.603Z,74.60
2018-09-14T19:26:26.811Z,75.10
2018-09-14T19:28:54.919Z,75.30
2018-09-14T19:31:23.083Z,75.90
2018-09-14T19:33:51.638Z,76.40
2018-09-14T19:36:19.913Z,76.70
2018-09-14T19:38:48.067Z,77.00
2018-09-14T19:41:16.168Z,77.10
2018-09-14T19:43:44.203Z,77.50
2018-09-14T19:46:13.310Z,78.10
2018-09-14T19:48:41.703Z,77.70
2018-09-14T19:51:09.724Z,78.00
2018-09-14T19:53:37.740Z,78.70
2018-09-14T19:56:05.804Z,79.00
2018-09-14T19:58:33.987Z,78.90
2018-09-14T20:01:02.152Z,79.30
2018-09-14T20:03:30.323Z,79.70
2018-09-14T20:05:58.660Z,79.90
2018-09-14T20:08:26.746Z,80.20
2018-09-14T20:14:26.106Z,80.40
2018-09-14T20:16:54.216Z,80.90
2018-09-14T20:19:22.256Z,80.90
2018-09-14T20:21:50.703Z,81.00
2018-09-14T20:24:18.927Z,81.00
2018-09-14T20:26:47.038Z,80.70
2018-09-14T20:29:15.089Z,80.30
2018-09-14T20:31:43.324Z,79.80
2018-09-14T20:34:11.321Z,79.30
2018-09-14T20:36:39.481Z,78.60
2018-09-14T20:39:09.131Z,77.90
2018-09-14T20:41:37.237Z,77.50
2018-09-14T20:44:05.418Z,77.20
2018-09-14T20:46:33.612Z,77.10
2018-09-14T20:49:01.648Z,76.90
2018-09-14T20:51:29.719Z,76.70
2018-09-14T20:53:58.257Z,76.50
2018-09-14T20:56:26.386Z,76.40
2018-09-14T20:58:54.490Z,76.50
2018-09-14T21:01:22.730Z,76.50
2018-09-14T21:03:50.769Z,76.60
2018-09-14T21:06:18.887Z,76.70
2018-09-14T21:08:46.947Z,76.80
2018-09-14T21:11:15.130Z,76.90
2018-09-14T21:13:43.299Z,77.10
2018-09-14T21:16:12.390Z,77.40
2018-09-14T21:18:40.407Z,77.40
2018-09-14T21:21:08.840Z,77.50
2018-09-14T21:23:36.966Z,77.40
2018-09-14T21:26:05.339Z,77.20
2018-09-14T21:28:33.358Z,77.10
2018-09-14T21:31:01.890Z,77.00
2018-09-14T21:33:29.914Z,76.60
2018-09-14T21:35:58.166Z,76.20
2018-09-14T21:38:26.355Z,76.00
2018-09-14T21:40:55.283Z,75.60
2018-09-14T21:43:23.597Z,75.40
2018-09-14T21:45:52.277Z,75.30
2018-09-14T21:48:20.388Z,75.00
2018-09-14T21:50:48.418Z,75.00
2018-09-14T21:53:16.614Z,74.90
2018-09-14T21:55:45.620Z,74.80
2018-09-14T21:58:13.709Z,74.60
2018-09-14T22:00:48.331Z,74.50
2018-09-14T22:03:16.341Z,74.10
2018-09-14T22:05:44.339Z,74.30
2018-09-14T22:08:12.423Z,74.20
2018-09-14T22:10:40.431Z,74.10
2018-09-14T22:13:08.490Z,74.00
2018-09-14T22:15:36.543Z,73.90
2018-09-14T22:18:05.011Z,73.90
2018-09-14T22:20:33.103Z,74.00
2018-09-14T22:23:01.387Z,73.90
2018-09-14T22:25:29.459Z,73.90
2018-09-14T22:27:57.708Z,74.10
2018-09-14T22:30:25.783Z,74.50
2018-09-14T22:32:53.959Z,74.10
2018-09-14T22:35:22.075Z,74.30
2018-09-14T22:37:50.218Z,74.40
2018-09-14T22:40:18.291Z,74.40
2018-09-14T22:42:46.465Z,74.40
2018-09-14T22:45:14.553Z,74.20
2018-09-14T22:47:42.618Z,74.30
2018-09-14T22:50:10.710Z,74.40
2018-09-14T22:52:39.140Z,74.30
2018-09-14T22:55:07.323Z,74.20
2018-09-14T22:57:35.374Z,73.90
2018-09-14T23:00:03.666Z,73.80
2018-09-14T23:02:31.822Z,73.60
2018-09-14T23:04:59.895Z,73.70
2018-09-14T23:07:28.303Z,73.60
2018-09-14T23:09:56.334Z,73.40
2018-09-14T23:12:24.383Z,73.40
2018-09-14T23:14:52.731Z,73.40
2018-09-14T23:17:20.758Z,73.20
2018-09-14T23:19:49.174Z,73.00
2018-09-14T23:22:17.382Z,73.00
2018-09-14T23:24:45.415Z,73.00
2018-09-14T23:27:14.538Z,73.10
2018-09-14T23:29:42.707Z,73.00
2018-09-14T23:32:10.730Z,73.10
2018-09-14T23:34:38.766Z,73.10
2018-09-14T23:37:06.822Z,73.00
2018-09-14T23:39:34.864Z,73.20
2018-09-14T23:42:02.917Z,73.40
2018-09-14T23:44:30.979Z,73.10
2018-09-14T23:46:59.084Z,73.50
2018-09-14T23:49:27.132Z,74.00
2018-09-14T23:51:55.295Z,73.90
2018-09-14T23:54:23.422Z,74.20
2018-09-14T23:56:51.506Z,74.90
2018-09-14T23:59:19.865Z,74.60
